Terminal Aerodrome Forecast
Issued by NWS

Home | Current Version | Previous Version | Text Only | Print | Product List | Glossary On
Versions: 1 2 3 4 5 6 7 8 9 10 11 12 13 14 15 16 17 18 19 20
000
FTUS41 KPBZ 032320
TAFZZV
TAF
KZZV 032320Z 0400/0424 07005KT P6SM BKN040
     FM040700 VRB04KT 5SM BR BKN025
     FM041600 14005KT P6SM BKN040=

USA.gov is the U.S. government's official web portal to all federal, state and local government web resources and services.